CheckWX is a tool to help pilots better visualize weather data.  It is not intended as a substitute for an official pre-flight weather briefing.

20:38:52 UTC

KTEX TAF
Telluride Regional Airport
Telluride, Colorado, USA
KTEX 221947Z 2220/2318 27005KT P6SM VCTS SCT035 BKN045CB OVC070 TEMPO 2220/2224 2SM -SHSN BR BKN018 OVC030 FM230000 27007KT P6SM VCSH SCT025 BKN035 FM231600 VRB03KT P6SM SCT030 BKN080

Mar-22@
20:00 UTC

Mar-22 @ 20:00 UTC

Mar-23@
00:00 UTC

Mar-23 @ 00:00 UTC

KTEX 221947Z 2220/2318 27005KT P6SM VCTS SCT035 BKN045CB OVC070
Wind
  • 270° at 5 KTS
Conditions
Area Thunderstorm
Cloud Levels
  • Scattered at 3,500' AGL
  • Broken at 4,500' AGL
  • Overcast at 7,000' AGL

Mar-22@
20:00 UTC

Mar-22 @ 20:00 UTC

Mar-23@
00:00 UTC

Mar-23 @ 00:00 UTC

TEMPO 2220/2224 2SM -SHSN BR BKN018 OVC030

Temporary

Temporary Changes expected for less than half the time period

Conditions
Light Snow, Mist
Cloud Levels
  • Broken at 1,800' AGL
  • Overcast at 3,000' AGL

Mar-23@
00:00 UTC

Mar-23 @ 00:00 UTC

Mar-23@
16:00 UTC

Mar-23 @ 16:00 UTC

FM230000 27007KT P6SM VCSH SCT025 BKN035

From

From Standard forecast or significant change

Wind
  • 270° at 7 KTS
Cloud Levels
  • Scattered at 2,500' AGL
  • Broken at 3,500' AGL

Mar-23@
16:00 UTC

Mar-23 @ 16:00 UTC

Mar-23@
18:00 UTC

Mar-23 @ 18:00 UTC

FM231600 VRB03KT P6SM SCT030 BKN080

From

From Standard forecast or significant change

Wind
  • Variable at 3 KTS
Cloud Levels
  • Scattered at 3,000' AGL
  • Broken at 8,000' AGL